createdAt,value
2023-05-16T00:00:17.977Z,12.32
2023-05-16T00:05:22.986Z,16.48
2023-05-16T00:10:27.202Z,13.77
2023-05-16T00:15:30.854Z,12.75
2023-05-16T00:20:35.893Z,13.15
2023-05-16T00:25:39.573Z,13.52
2023-05-16T00:30:43.072Z,13.30
2023-05-16T00:35:48.084Z,15.70
2023-05-16T00:40:51.637Z,15.38
2023-05-16T00:45:55.173Z,12.77
2023-05-16T00:51:00.401Z,18.70
2023-05-16T00:56:04.149Z,14.15
2023-05-16T01:01:08.234Z,14.82
2023-05-16T01:06:13.892Z,15.38
2023-05-16T01:16:32.580Z,13.30
2023-05-16T01:21:49.359Z,18.38
2023-05-16T01:26:55.785Z,14.07
2023-05-16T01:31:59.659Z,13.80
2023-05-16T01:37:14.136Z,15.32
2023-05-16T01:42:22.689Z,18.45
2023-05-16T01:47:27.735Z,19.35
2023-05-16T01:52:45.601Z,11.18
2023-05-16T01:57:53.071Z,24.35
2023-05-16T02:02:56.811Z,14.27
2023-05-16T02:08:00.785Z,16.63
2023-05-16T02:13:05.874Z,16.10
2023-05-16T02:18:09.771Z,14.75
2023-05-16T02:23:13.807Z,20.50
2023-05-16T02:28:18.774Z,20.55
2023-05-16T02:33:22.346Z,30.47
2023-05-16T02:38:26.023Z,35.55
2023-05-16T02:43:31.153Z,30.73
2023-05-16T02:48:34.987Z,35.72
2023-05-16T02:53:38.654Z,45.58
2023-05-16T02:58:43.819Z,35.60
2023-05-16T03:03:47.713Z,40.42
2023-05-16T03:08:51.129Z,42.80
2023-05-16T03:13:56.525Z,36.13
2023-05-16T03:19:00.707Z,38.10
2023-05-16T03:24:04.377Z,40.45
2023-05-16T03:29:09.426Z,35.92
2023-05-16T03:34:13.264Z,40.15
2023-05-16T03:39:17.214Z,36.92
2023-05-16T03:44:22.293Z,39.33
2023-05-16T03:49:28.707Z,41.03
2023-05-16T03:54:32.421Z,39.90
2023-05-16T03:59:37.318Z,40.20
2023-05-16T04:04:40.838Z,33.37
2023-05-16T04:09:44.483Z,44.25
2023-05-16T04:14:49.478Z,32.10
2023-05-16T04:19:52.922Z,27.35
2023-05-16T04:24:57.434Z,28.13
2023-05-16T04:30:02.519Z,28.27
2023-05-16T04:35:06.493Z,32.90
2023-05-16T04:40:11.544Z,30.70
2023-05-16T04:45:20.338Z,30.73
2023-05-16T04:50:24.004Z,29.90
2023-05-16T04:55:27.931Z,34.17
2023-05-16T05:00:32.830Z,29.92
2023-05-16T05:05:36.225Z,26.50
2023-05-16T05:10:39.820Z,25.38
2023-05-16T05:15:44.727Z,22.35
2023-05-16T05:20:48.320Z,20.67
2023-05-16T05:25:52.238Z,15.82
2023-05-16T05:30:57.247Z,30.90
2023-05-16T05:36:03.903Z,15.05
2023-05-16T05:41:08.261Z,11.80
2023-05-16T05:46:13.329Z,12.35
2023-05-16T05:51:18.164Z,12.10
2023-05-16T05:56:22.338Z,14.77
2023-05-16T06:01:27.679Z,8.93
2023-05-16T06:06:31.587Z,6.80
2023-05-16T06:11:35.334Z,7.25
2023-05-16T06:16:40.935Z,7.05
2023-05-16T06:21:45.975Z,7.60
2023-05-16T06:26:50.689Z,7.60
2023-05-16T06:31:55.866Z,10.73
2023-05-16T06:37:00.101Z,5.20
2023-05-16T06:42:03.794Z,6.90
2023-05-16T06:52:13.817Z,5.90
2023-05-16T06:57:17.569Z,8.10
2023-05-16T07:02:22.349Z,8.52
2023-05-16T07:07:25.934Z,7.97
2023-05-16T07:12:29.376Z,8.35
2023-05-16T07:17:34.378Z,11.60
2023-05-16T07:22:37.949Z,5.90
2023-05-16T07:27:45.059Z,9.23
2023-05-16T07:32:50.823Z,7.47
2023-05-16T07:42:59.790Z,9.88
2023-05-16T07:53:08.421Z,7.80
2023-05-16T07:58:12.133Z,9.48
2023-05-16T08:03:17.249Z,7.15
2023-05-16T08:08:22.336Z,8.45
2023-05-16T08:13:26.209Z,4.97
2023-05-16T08:18:31.228Z,5.03
2023-05-16T08:23:34.900Z,9.07
2023-05-16T08:28:38.506Z,3.67
2023-05-16T08:33:43.595Z,3.85
2023-05-16T08:38:47.211Z,5.00
2023-05-16T08:43:50.962Z,5.93
2023-05-16T08:49:00.109Z,6.47
2023-05-16T08:54:05.991Z,4.22
2023-05-16T08:59:11.508Z,3.40
2023-05-16T09:09:21.230Z,2.25
2023-05-16T09:14:24.529Z,5.45
2023-05-16T09:19:34.339Z,2.97
2023-05-16T09:24:40.784Z,2.05
2023-05-16T09:29:45.357Z,3.38
2023-05-16T09:34:53.005Z,4.22
2023-05-16T09:39:56.805Z,10.02
2023-05-16T09:45:02.880Z,5.70
2023-05-16T09:50:09.277Z,10.25
2023-05-16T09:55:15.317Z,4.45
2023-05-16T10:00:20.103Z,3.58
2023-05-16T10:05:25.935Z,2.90
2023-05-16T10:10:29.798Z,5.28
2023-05-16T10:15:34.026Z,5.90
2023-05-16T10:20:39.970Z,12.13
2023-05-16T10:25:45.097Z,4.25
2023-05-16T10:30:49.286Z,6.25
2023-05-16T10:35:55.026Z,4.97
2023-05-16T10:40:58.772Z,6.20
2023-05-16T10:46:06.126Z,7.00
2023-05-16T10:51:39.259Z,9.50
2023-05-16T10:56:43.753Z,9.10
2023-05-16T11:01:54.889Z,5.38
2023-05-16T11:07:00.702Z,8.48
2023-05-16T11:12:04.453Z,11.63
2023-05-16T11:17:12.831Z,6.35
2023-05-16T11:22:28.307Z,8.70
2023-05-16T11:27:33.230Z,6.13
2023-05-16T11:32:38.628Z,9.32
2023-05-16T11:42:49.164Z,11.50
2023-05-16T11:47:52.562Z,9.85
2023-05-16T11:52:57.973Z,7.15
2023-05-16T11:58:02.410Z,10.30
2023-05-16T12:03:06.917Z,9.55
2023-05-16T12:08:13.079Z,15.47
2023-05-16T12:13:19.364Z,7.07
2023-05-16T12:18:26.434Z,11.50
2023-05-16T12:23:32.141Z,10.30
2023-05-16T12:28:39.707Z,10.80
2023-05-16T12:33:43.475Z,9.32
2023-05-16T12:38:49.584Z,13.35
2023-05-16T12:43:53.275Z,14.35
2023-05-16T12:49:05.583Z,7.13
2023-05-16T12:54:12.596Z,6.10
2023-05-16T12:59:17.163Z,12.00
2023-05-16T13:04:20.836Z,13.10
2023-05-16T13:09:29.073Z,11.25
2023-05-16T13:14:35.580Z,7.28
2023-05-16T13:19:39.182Z,11.20
2023-05-16T13:24:44.154Z,10.55
2023-05-16T13:29:48.054Z,9.52
2023-05-16T13:34:51.618Z,8.23
2023-05-16T13:39:56.727Z,4.75
2023-05-16T13:45:00.065Z,7.30
2023-05-16T13:50:06.628Z,7.10
2023-05-16T13:55:11.872Z,8.98
2023-05-16T14:05:23.147Z,11.80
2023-05-16T14:10:28.401Z,6.13
2023-05-16T14:15:32.219Z,7.10
2023-05-16T14:20:35.861Z,9.55
2023-05-16T14:25:40.437Z,5.38
2023-05-16T14:30:44.966Z,8.13
2023-05-16T14:35:50.283Z,7.90
2023-05-16T14:40:54.900Z,10.45
2023-05-16T14:45:58.332Z,4.07
2023-05-16T14:51:01.683Z,6.45
2023-05-16T14:56:06.751Z,2.65
2023-05-16T15:01:10.125Z,8.90
2023-05-16T15:06:13.600Z,8.18
2023-05-16T15:11:18.278Z,7.28
2023-05-16T15:16:21.914Z,4.15
2023-05-16T15:21:25.683Z,4.68
2023-05-16T15:26:31.032Z,7.95
2023-05-16T15:31:35.049Z,10.68
2023-05-16T15:36:38.832Z,7.18
2023-05-16T15:42:08.444Z,4.28
2023-05-16T15:47:08.451Z,5.50
2023-05-16T15:52:12.129Z,3.42
2023-05-16T15:57:16.823Z,5.97
2023-05-16T16:02:20.088Z,2.50
2023-05-16T16:07:23.362Z,8.00
2023-05-16T16:12:31.460Z,3.08
2023-05-16T16:17:35.369Z,4.40
2023-05-16T16:22:38.709Z,2.10
2023-05-16T16:27:43.973Z,5.63
2023-05-16T16:32:48.975Z,3.78
2023-05-16T16:38:05.769Z,2.83
2023-05-16T16:43:11.905Z,4.28
2023-05-16T16:48:15.570Z,5.13
2023-05-16T16:53:19.212Z,4.72
2023-05-16T16:58:24.257Z,3.72
2023-05-16T17:03:27.898Z,6.63
2023-05-16T17:08:31.780Z,5.63
2023-05-16T17:13:37.978Z,3.33
2023-05-16T17:18:43.235Z,4.32
2023-05-16T17:28:52.341Z,9.02
2023-05-16T17:33:55.694Z,6.10
2023-05-16T17:38:59.634Z,7.82
2023-05-16T17:44:06.791Z,5.10
2023-05-16T17:49:10.688Z,3.83
2023-05-16T17:54:13.952Z,5.35
2023-05-16T17:59:19.120Z,2.92
2023-05-16T18:04:23.815Z,7.68
2023-05-16T18:09:27.518Z,4.20
2023-05-16T18:14:33.056Z,2.92
2023-05-16T18:19:37.511Z,6.32
2023-05-16T18:24:41.346Z,3.28
2023-05-16T18:29:46.524Z,4.57
2023-05-16T18:34:50.316Z,3.20
2023-05-16T18:39:53.950Z,6.43
2023-05-16T18:44:58.607Z,3.47
2023-05-16T18:50:02.713Z,3.50
2023-05-16T18:55:06.727Z,3.13
2023-05-16T19:00:12.776Z,3.25
2023-05-16T19:05:16.323Z,7.63
2023-05-16T19:10:28.642Z,9.38
2023-05-16T19:15:34.267Z,2.78
2023-05-16T19:20:37.925Z,5.05
2023-05-16T19:25:47.721Z,5.18
2023-05-16T19:30:52.754Z,5.00
2023-05-16T19:35:57.698Z,9.85
2023-05-16T19:41:01.162Z,7.10
2023-05-16T19:46:05.927Z,12.75
2023-05-16T19:51:09.876Z,5.40
2023-05-16T19:56:13.294Z,3.92
2023-05-16T20:01:20.317Z,3.10
2023-05-16T20:06:23.645Z,4.18
2023-05-16T20:11:27.078Z,3.95
2023-05-16T20:16:32.202Z,8.05
2023-05-16T20:21:35.987Z,7.18
2023-05-16T20:26:39.827Z,3.17
2023-05-16T20:31:44.914Z,4.75
2023-05-16T20:36:48.556Z,9.32
2023-05-16T20:41:52.309Z,1.85
2023-05-16T20:46:57.454Z,5.63
2023-05-16T20:52:01.089Z,4.82
2023-05-16T20:57:04.871Z,2.88
2023-05-16T21:02:11.229Z,6.55
2023-05-16T21:07:14.899Z,4.93
2023-05-16T21:12:18.488Z,0.82
2023-05-16T21:17:23.439Z,2.88
2023-05-16T21:22:27.092Z,4.27
2023-05-16T21:27:30.372Z,5.20
2023-05-16T21:32:35.002Z,5.97
2023-05-16T21:37:38.311Z,3.30
2023-05-16T21:42:41.649Z,3.22
2023-05-16T21:47:46.672Z,3.58
2023-05-16T21:52:49.989Z,5.93
2023-05-16T21:57:53.201Z,4.97
2023-05-16T22:02:57.966Z,7.13
2023-05-16T22:08:01.267Z,4.20
2023-05-16T22:13:04.555Z,2.88
2023-05-16T22:18:09.375Z,3.05
2023-05-16T22:23:12.607Z,6.00
2023-05-16T22:28:15.833Z,5.07
2023-05-16T22:33:22.688Z,6.03
2023-05-16T22:38:26.078Z,3.85
2023-05-16T22:43:29.613Z,3.88
2023-05-16T22:48:34.308Z,3.63
2023-05-16T22:53:37.520Z,8.07
2023-05-16T22:58:40.751Z,6.28
2023-05-16T23:03:45.504Z,6.38
2023-05-16T23:08:49.286Z,3.15
2023-05-16T23:13:52.785Z,5.72
2023-05-16T23:18:57.939Z,8.70
2023-05-16T23:24:01.282Z,4.00
2023-05-16T23:29:04.500Z,4.32
2023-05-16T23:34:09.968Z,9.18
2023-05-16T23:39:13.717Z,4.82
2023-05-16T23:44:17.045Z,3.90
2023-05-16T23:49:22.036Z,3.33
2023-05-16T23:54:25.938Z,8.23
2023-05-16T23:59:29.746Z,5.20
